Time;durP1;ratioP1;P1;durP2;ratioP2;P2;SDS_P1;SDS_P2;PMS_P1;PMS_P2;Temp;Humidity;BMP_temperature;BMP_pressure;BME280_temperature;BME280_humidity;BME280_pressure;Samples;Min_cycle;Max_cycle;Signal;HPM_P1;HPM_P2
2022/03/05 00:02:14;;;;;;;12.25;8.82;;;1.20;99.90;;;;;;5136118;27;20156;-68
2022/03/05 00:04:40;;;;;;;13.80;10.33;;;1.20;99.90;;;;;;5154045;27;20625;-68
2022/03/05 00:07:07;;;;;;;13.20;9.43;;;1.20;99.90;;;;;;5154490;27;20493;-68
2022/03/05 00:09:32;;;;;;;15.43;9.48;;;1.20;99.90;;;;;;5154020;27;20046;-68
2022/03/05 00:11:58;;;;;;;15.33;9.73;;;1.20;99.90;;;;;;5154478;27;20084;-68
2022/03/05 00:14:25;;;;;;;11.53;8.53;;;1.10;99.90;;;;;;5157093;27;20078;-68
2022/03/05 00:16:50;;;;;;;16.50;9.43;;;1.10;99.90;;;;;;5157928;27;20129;-68
2022/03/05 00:19:16;;;;;;;14.40;10.13;;;1.10;99.90;;;;;;5158214;27;20093;-68
2022/03/05 00:21:42;;;;;;;13.10;9.83;;;1.00;99.90;;;;;;5139406;27;20050;-68
2022/03/05 00:24:07;;;;;;;13.23;9.80;;;1.00;99.90;;;;;;5157991;27;20134;-68
2022/03/05 00:26:33;;;;;;;13.63;10.07;;;1.00;99.90;;;;;;5122401;27;20107;-68
2022/03/05 00:28:59;;;;;;;14.33;10.07;;;1.00;99.90;;;;;;5139697;27;20043;-68
2022/03/05 00:31:25;;;;;;;15.90;10.10;;;1.00;99.90;;;;;;5157646;27;20458;-69
2022/03/05 00:33:50;;;;;;;17.13;10.57;;;1.00;99.90;;;;;;5157781;27;20078;-68
2022/03/05 00:36:16;;;;;;;14.37;9.33;;;0.90;99.90;;;;;;5139069;27;20043;-68
2022/03/05 00:38:42;;;;;;;17.93;11.27;;;1.00;99.90;;;;;;5138960;27;20053;-70
2022/03/05 00:41:08;;;;;;;14.73;10.47;;;1.00;99.90;;;;;;5157731;27;20107;-68
2022/03/05 00:43:34;;;;;;;15.15;10.10;;;1.00;99.90;;;;;;5122078;27;20098;-69
2022/03/05 00:46:00;;;;;;;14.73;10.43;;;1.00;99.90;;;;;;5139262;27;20051;-68
2022/03/05 00:48:26;;;;;;;17.60;10.53;;;0.90;99.90;;;;;;5157182;27;20055;-69
2022/03/05 00:50:52;;;;;;;14.23;10.57;;;0.90;99.90;;;;;;5157845;27;20043;-68
2022/03/05 00:53:18;;;;;;;14.97;11.07;;;0.90;99.90;;;;;;5139087;27;20082;-68
2022/03/05 00:55:44;;;;;;;16.30;11.25;;;0.90;99.90;;;;;;5156939;27;20038;-69
2022/03/05 00:58:10;;;;;;;19.13;11.85;;;0.90;99.90;;;;;;5157300;27;20450;-68
2022/03/05 01:00:36;;;;;;;19.40;13.50;;;0.90;99.90;;;;;;5156950;27;20078;-68
2022/03/05 01:03:02;;;;;;;19.92;12.88;;;0.80;99.90;;;;;;5157272;27;20068;-68
2022/03/05 01:05:28;;;;;;;17.47;11.93;;;0.80;99.90;;;;;;5121225;27;20486;-69
2022/03/05 01:07:54;;;;;;;16.00;10.90;;;0.80;99.90;;;;;;5157343;27;20053;-68
2022/03/05 01:10:19;;;;;;;16.40;10.97;;;0.70;99.90;;;;;;5138755;27;20046;-68
2022/03/05 01:12:45;;;;;;;16.70;10.80;;;0.70;99.90;;;;;;5157141;27;20066;-69
2022/03/05 01:15:12;;;;;;;16.83;11.30;;;0.70;99.90;;;;;;5138500;27;20046;-69
2022/03/05 01:17:37;;;;;;;14.73;11.05;;;0.70;99.90;;;;;;5154593;27;20059;-68
2022/03/05 01:20:04;;;;;;;16.77;11.13;;;0.70;99.90;;;;;;5156954;27;20531;-68
2022/03/05 01:22:30;;;;;;;14.75;10.73;;;0.70;99.90;;;;;;5138022;27;20046;-70
2022/03/05 01:24:55;;;;;;;15.20;10.97;;;0.60;99.90;;;;;;5137922;27;20042;-68
2022/03/05 01:27:22;;;;;;;17.50;10.83;;;0.60;99.90;;;;;;5156804;27;20126;-68
2022/03/05 01:29:48;;;;;;;15.55;11.27;;;0.60;99.90;;;;;;5138148;27;20089;-69
2022/03/05 01:32:14;;;;;;;16.63;11.10;;;0.60;99.90;;;;;;5156736;27;20046;-68
2022/03/05 01:34:40;;;;;;;17.73;10.83;;;0.70;99.90;;;;;;5137807;27;20061;-69
2022/03/05 01:37:05;;;;;;;15.40;10.83;;;0.60;99.90;;;;;;5121201;27;20099;-68
2022/03/05 01:39:31;;;;;;;16.37;10.73;;;0.60;99.90;;;;;;5137691;27;20046;-69
2022/03/05 01:41:57;;;;;;;17.97;11.30;;;0.60;99.90;;;;;;5138159;27;20478;-69
2022/03/05 01:44:24;;;;;;;17.33;10.23;;;0.50;99.90;;;;;;5156566;27;20050;-68
2022/03/05 01:46:49;;;;;;;15.55;11.07;;;0.60;99.90;;;;;;5137742;27;20126;-68
2022/03/05 01:49:16;;;;;;;15.57;10.80;;;0.60;99.90;;;;;;5137956;27;20080;-69
2022/03/05 01:51:43;;;;;;;15.73;10.80;;;0.50;99.90;;;;;;5155991;27;20050;-69
2022/03/05 01:54:09;;;;;;;15.80;11.25;;;0.40;99.90;;;;;;5137708;27;20125;-69
2022/03/05 01:56:37;;;;;;;14.90;10.43;;;0.50;99.90;;;;;;5155840;27;20046;-69
2022/03/05 01:59:04;;;;;;;17.08;10.85;;;0.50;99.90;;;;;;5156135;27;20085;-69
2022/03/05 02:01:30;;;;;;;15.82;10.13;;;0.50;99.90;;;;;;5156036;27;20053;-69
2022/03/05 02:03:56;;;;;;;15.80;10.20;;;0.40;99.90;;;;;;5155728;27;20047;-69
2022/03/05 02:06:23;;;;;;;16.63;11.55;;;0.40;99.90;;;;;;5137492;27;20050;-69
2022/03/05 02:08:49;;;;;;;16.58;11.38;;;0.40;99.90;;;;;;5120295;27;20042;-69
2022/03/05 02:11:15;;;;;;;15.40;10.53;;;0.40;99.90;;;;;;5155858;27;20049;-68
2022/03/05 02:13:41;;;;;;;19.77;11.80;;;0.40;99.90;;;;;;5155560;27;20055;-69
2022/03/05 02:16:08;;;;;;;17.40;11.07;;;0.40;99.90;;;;;;5155689;27;20039;-69
2022/03/05 02:18:34;;;;;;;15.25;9.88;;;0.40;99.90;;;;;;5155640;27;20058;-80
2022/03/05 02:21:00;;;;;;;15.70;10.70;;;0.40;99.90;;;;;;5155690;27;20137;-68
2022/03/05 02:23:25;;;;;;;14.93;10.67;;;0.40;99.90;;;;;;5155783;27;20042;-68
2022/03/05 02:26:00;;;;;;;15.93;10.70;;;0.40;99.90;;;;;;5155340;27;20431;-68
2022/03/05 02:28:27;;;;;;;14.73;9.98;;;0.40;99.90;;;;;;5155599;27;20053;-68
2022/03/05 02:30:54;;;;;;;14.70;9.70;;;0.40;99.90;;;;;;5155155;27;20050;-69
2022/03/05 02:33:20;;;;;;;15.23;10.35;;;0.40;99.90;;;;;;5155482;27;20047;-68
2022/03/05 02:35:46;;;;;;;16.83;10.40;;;0.30;99.90;;;;;;5154187;27;20042;-68
2022/03/05 02:38:17;;;;;;;18.40;11.10;;;0.40;99.90;;;;;;5137293;27;20367;-68
2022/03/05 02:40:44;;;;;;;12.95;9.43;;;0.30;99.90;;;;;;5155148;27;20276;-69
2022/03/05 02:43:10;;;;;;;14.90;9.23;;;0.30;99.90;;;;;;5155287;27;20137;-68
2022/03/05 02:45:36;;;;;;;13.05;9.60;;;0.40;99.90;;;;;;5155381;27;20082;-68
2022/03/05 02:48:04;;;;;;;15.13;9.45;;;0.40;99.90;;;;;;5155288;27;20042;-68
2022/03/05 02:50:30;;;;;;;15.30;9.27;;;0.40;99.90;;;;;;5155185;27;20043;-68
2022/03/05 02:52:56;;;;;;;13.30;8.27;;;0.30;99.90;;;;;;5154849;27;20381;-69
2022/03/05 02:55:22;;;;;;;13.82;8.85;;;0.30;99.90;;;;;;5154986;27;20038;-68
2022/03/05 02:57:48;;;;;;;14.30;8.83;;;0.30;99.90;;;;;;5154793;27;20074;-69
2022/03/05 03:00:15;;;;;;;14.80;8.80;;;0.20;99.90;;;;;;5136784;27;20509;-68
2022/03/05 03:02:43;;;;;;;14.40;8.93;;;0.20;99.90;;;;;;5154704;27;20276;-69
2022/03/05 03:05:09;;;;;;;13.32;8.95;;;0.20;99.90;;;;;;5155038;27;20045;-68
2022/03/05 03:07:35;;;;;;;14.10;8.70;;;0.20;99.90;;;;;;5136575;27;20034;-68
2022/03/05 03:10:02;;;;;;;14.77;8.65;;;0.20;99.90;;;;;;5154615;27;20078;-68
2022/03/05 03:12:28;;;;;;;13.95;8.52;;;0.10;99.90;;;;;;5154803;27;20046;-68
2022/03/05 03:14:53;;;;;;;13.40;7.90;;;0.10;99.90;;;;;;5154045;27;20550;-68
2022/03/05 03:17:19;;;;;;;13.90;8.17;;;0.10;99.90;;;;;;5154550;27;20072;-68
2022/03/05 03:19:45;;;;;;;12.27;8.37;;;0.10;99.90;;;;;;5154510;27;20406;-68
2022/03/05 03:22:11;;;;;;;14.43;8.77;;;0.00;99.90;;;;;;5154419;27;20092;-68
2022/03/05 03:24:37;;;;;;;16.95;8.75;;;0.00;99.90;;;;;;5119425;27;20050;-68
2022/03/05 03:27:03;;;;;;;13.00;8.40;;;0.00;99.90;;;;;;5135683;27;20054;-68
2022/03/05 03:29:29;;;;;;;14.30;7.53;;;0.00;99.90;;;;;;5154613;27;20432;-68
2022/03/05 03:31:54;;;;;;;12.13;7.87;;;0.00;99.90;;;;;;5135955;27;20039;-68
2022/03/05 03:34:20;;;;;;;12.57;8.50;;;0.00;99.90;;;;;;5154662;27;20096;-68
2022/03/05 03:36:46;;;;;;;13.00;7.77;;;0.00;99.90;;;;;;5102196;27;20061;-68
2022/03/05 03:39:11;;;;;;;12.87;8.23;;;-0.10;99.90;;;;;;5154885;27;20046;-68
2022/03/05 03:41:37;;;;;;;12.43;7.50;;;-0.10;99.90;;;;;;5154629;27;20509;-68
2022/03/05 03:44:03;;;;;;;14.33;7.97;;;-0.10;99.90;;;;;;5153915;27;20074;-68
2022/03/05 03:46:29;;;;;;;13.73;7.93;;;-0.10;99.90;;;;;;5154646;27;20047;-68
2022/03/05 03:48:55;;;;;;;14.23;8.25;;;-0.10;99.90;;;;;;5158412;27;20038;-68
2022/03/05 03:51:21;;;;;;;12.90;7.93;;;-0.10;99.90;;;;;;5140442;27;20539;-68
2022/03/05 03:53:46;;;;;;;11.93;7.67;;;0.00;99.90;;;;;;5158428;27;20050;-68
2022/03/05 03:56:13;;;;;;;13.33;7.93;;;-0.10;99.90;;;;;;5158728;27;20045;-68
2022/03/05 03:58:39;;;;;;;14.05;8.13;;;-0.20;99.90;;;;;;5158488;27;20078;-68
2022/03/05 04:01:05;;;;;;;12.23;8.17;;;-0.20;99.90;;;;;;5158173;27;20086;-68
2022/03/05 04:03:30;;;;;;;12.43;7.77;;;-0.10;99.90;;;;;;5158481;27;20283;-68
2022/03/05 04:05:56;;;;;;;12.57;7.67;;;-0.20;99.90;;;;;;5139629;27;20046;-68
2022/03/05 04:11:07;;;;;;;15.90;9.30;;;-0.20;99.90;;;;;;5142463;27;20280;-68
2022/03/05 04:13:33;;;;;;;13.63;8.70;;;-0.20;99.90;;;;;;5139948;27;20051;-68
2022/03/05 04:15:58;;;;;;;13.80;8.63;;;-0.20;99.90;;;;;;5157796;27;20094;-68
2022/03/05 04:18:24;;;;;;;12.63;7.73;;;-0.30;99.90;;;;;;5158343;27;20486;-68
2022/03/05 04:20:50;;;;;;;12.67;7.77;;;-0.20;99.90;;;;;;5157714;27;20053;-68
2022/03/05 04:23:16;;;;;;;14.00;8.77;;;-0.20;99.90;;;;;;5158066;27;20042;-68
2022/03/05 04:25:41;;;;;;;12.63;8.43;;;-0.20;99.90;;;;;;5158055;27;20042;-68
2022/03/05 04:28:07;;;;;;;14.57;8.53;;;-0.30;99.90;;;;;;5157718;27;20091;-68
2022/03/05 04:30:33;;;;;;;13.03;8.27;;;-0.30;99.90;;;;;;5157950;27;20095;-68
2022/03/05 04:32:59;;;;;;;15.43;7.75;;;-0.20;99.90;;;;;;5157726;27;20049;-69
2022/03/05 04:35:25;;;;;;;14.97;8.70;;;-0.30;99.90;;;;;;5157833;27;20439;-68
2022/03/05 04:37:51;;;;;;;15.20;8.68;;;-0.30;99.90;;;;;;5157467;27;20385;-68
2022/03/05 04:40:18;;;;;;;15.45;9.43;;;-0.30;99.90;;;;;;5139556;27;20051;-68
2022/03/05 04:42:44;;;;;;;15.68;8.80;;;-0.30;99.90;;;;;;5139469;27;20165;-68
2022/03/05 04:45:10;;;;;;;14.57;8.65;;;-0.30;99.90;;;;;;5122034;27;20062;-68
2022/03/05 04:47:37;;;;;;;15.80;9.33;;;-0.30;99.90;;;;;;5157305;27;20379;-68
2022/03/05 04:50:04;;;;;;;13.63;8.95;;;-0.30;99.90;;;;;;5157373;27;20042;-68
2022/03/05 04:52:30;;;;;;;15.05;8.68;;;-0.30;99.90;;;;;;5157501;27;20134;-68
2022/03/05 04:54:56;;;;;;;14.87;9.33;;;-0.30;99.90;;;;;;5138746;27;20486;-68
2022/03/05 04:57:22;;;;;;;14.77;9.18;;;-0.30;99.90;;;;;;5157977;27;20081;-68
2022/03/05 04:59:48;;;;;;;14.73;9.00;;;-0.30;99.90;;;;;;5137933;27;20463;-68
2022/03/05 05:02:14;;;;;;;15.10;9.80;;;-0.30;99.90;;;;;;5121688;27;20038;-68
2022/03/05 05:04:39;;;;;;;14.17;9.10;;;-0.40;99.90;;;;;;5157182;27;20039;-68
2022/03/05 05:07:05;;;;;;;14.13;8.70;;;-0.30;99.90;;;;;;5156921;27;20276;-68
2022/03/05 05:09:31;;;;;;;18.13;9.57;;;-0.40;99.90;;;;;;5157163;27;20046;-68
2022/03/05 05:11:57;;;;;;;14.13;8.70;;;-0.40;99.90;;;;;;5156855;27;20042;-69
2022/03/05 05:14:22;;;;;;;14.00;9.27;;;-0.40;99.90;;;;;;5138919;27;20038;-68
2022/03/05 05:16:49;;;;;;;16.97;9.57;;;-0.40;99.90;;;;;;5138519;27;20399;-68
2022/03/05 05:19:29;;;;;;;14.25;9.18;;;-0.40;99.90;;;;;;5138276;27;20055;-68
2022/03/05 05:22:01;;;;;;;15.07;9.65;;;-0.40;99.90;;;;;;5138183;27;20096;-68
2022/03/05 05:24:29;;;;;;;12.07;8.63;;;-0.40;99.90;;;;;;5156897;27;20043;-68
2022/03/05 05:26:56;;;;;;;17.05;9.20;;;-0.40;99.90;;;;;;5156469;27;20051;-69
2022/03/05 05:29:22;;;;;;;13.48;9.00;;;-0.50;99.90;;;;;;5121236;27;20065;-69
2022/03/05 05:31:48;;;;;;;15.77;9.38;;;-0.40;99.90;;;;;;5156707;27;20496;-69
2022/03/05 05:34:14;;;;;;;15.90;9.40;;;-0.40;99.90;;;;;;5156338;27;20097;-69
2022/03/05 05:36:40;;;;;;;14.20;9.23;;;-0.40;99.90;;;;;;5138457;27;20086;-69
2022/03/05 05:39:07;;;;;;;16.20;9.87;;;-0.40;99.90;;;;;;5156369;27;20337;-69
2022/03/05 05:41:34;;;;;;;15.13;8.32;;;-0.50;99.90;;;;;;5156619;27;20042;-69
2022/03/05 05:44:00;;;;;;;13.77;8.43;;;-0.50;99.90;;;;;;5137716;27;20051;-69
2022/03/05 05:46:26;;;;;;;18.63;9.30;;;-0.50;99.90;;;;;;5156742;27;20091;-69
2022/03/05 05:48:51;;;;;;;14.00;9.63;;;-0.50;99.90;;;;;;5138155;27;20295;-69
2022/03/05 05:51:17;;;;;;;14.03;8.70;;;-0.50;99.90;;;;;;5156091;27;20092;-69
2022/03/05 05:53:43;;;;;;;13.97;9.03;;;-0.50;99.90;;;;;;5156348;27;20142;-69
2022/03/05 05:56:09;;;;;;;13.97;9.40;;;-0.50;99.90;;;;;;5155889;27;20038;-69
2022/03/05 05:58:35;;;;;;;15.50;8.93;;;-0.50;99.90;;;;;;5156191;27;20050;-68
2022/03/05 06:01:00;;;;;;;15.90;8.83;;;-0.50;99.90;;;;;;5155960;27;20046;-68
2022/03/05 06:03:27;;;;;;;13.43;8.90;;;-0.50;99.90;;;;;;5137719;27;20159;-69
2022/03/05 06:05:52;;;;;;;15.07;9.30;;;-0.60;99.90;;;;;;5156071;27;20482;-68
2022/03/05 06:08:18;;;;;;;13.27;9.03;;;-0.60;99.90;;;;;;5155716;27;20042;-69
2022/03/05 06:10:44;;;;;;;12.80;8.50;;;-0.60;99.90;;;;;;5156018;27;20121;-69
2022/03/05 06:13:09;;;;;;;15.57;8.70;;;-0.50;99.90;;;;;;5155943;27;20043;-69
2022/03/05 06:15:35;;;;;;;15.40;8.77;;;-0.60;99.90;;;;;;5137389;27;20034;-69
2022/03/05 06:18:02;;;;;;;14.67;8.87;;;-0.60;99.90;;;;;;5123171;27;20056;-69
2022/03/05 06:20:27;;;;;;;14.10;8.93;;;-0.50;99.90;;;;;;5114437;28;20087;-69
2022/03/05 06:22:53;;;;;;;15.10;9.00;;;-0.40;99.90;;;;;;5096679;28;20174;-69
2022/03/05 06:25:20;;;;;;;15.50;9.43;;;-0.40;99.90;;;;;;5114229;28;20955;-68
2022/03/05 06:27:46;;;;;;;14.75;8.90;;;-0.50;99.90;;;;;;5114470;28;20046;-68
2022/03/05 06:30:13;;;;;;;13.35;8.63;;;-0.50;99.90;;;;;;5114075;28;20044;-69
2022/03/05 06:32:39;;;;;;;13.50;8.20;;;-0.40;99.90;;;;;;5114444;28;20047;-68
2022/03/05 06:35:05;;;;;;;17.30;9.05;;;-0.40;99.90;;;;;;5113890;28;20047;-69
2022/03/05 06:37:31;;;;;;;13.48;9.00;;;-0.50;99.90;;;;;;5113930;28;20047;-68
2022/03/05 06:39:58;;;;;;;15.10;8.65;;;-0.40;99.90;;;;;;5113283;28;20047;-69
2022/03/05 06:42:23;;;;;;;14.75;8.43;;;-0.40;99.90;;;;;;5113760;28;20079;-69
2022/03/05 06:44:50;;;;;;;13.80;8.17;;;-0.40;99.90;;;;;;5114134;28;20078;-69
2022/03/05 06:47:16;;;;;;;12.48;8.02;;;-0.40;99.90;;;;;;5113805;28;20079;-70
2022/03/05 06:49:42;;;;;;;13.20;8.25;;;-0.40;99.90;;;;;;5114232;28;20051;-67
2022/03/05 06:52:10;;;;;;;12.43;8.73;;;-0.30;99.90;;;;;;5113844;28;20077;-67
2022/03/05 06:54:36;;;;;;;14.30;8.73;;;-0.30;99.90;;;;;;5113968;27;20404;-67
2022/03/05 06:57:02;;;;;;;11.88;8.50;;;-0.20;99.90;;;;;;5096227;28;20079;-67
2022/03/05 06:59:28;;;;;;;14.27;8.52;;;-0.30;99.90;;;;;;5113942;28;20047;-67
2022/03/05 07:01:54;;;;;;;13.80;8.20;;;-0.20;99.90;;;;;;5113865;28;20043;-67
2022/03/05 07:04:19;;;;;;;15.83;9.70;;;-0.20;99.90;;;;;;5113463;28;20055;-69
2022/03/05 07:06:45;;;;;;;13.90;8.60;;;-0.10;99.90;;;;;;5112774;28;20087;-68
2022/03/05 07:09:11;;;;;;;12.87;8.17;;;-0.10;99.90;;;;;;5112412;28;20051;-69
2022/03/05 07:11:37;;;;;;;12.83;8.70;;;-0.10;99.90;;;;;;5112669;28;20427;-69
2022/03/05 07:14:03;;;;;;;13.30;8.27;;;-0.10;99.90;;;;;;5113657;28;20047;-68
2022/03/05 07:16:28;;;;;;;13.32;7.95;;;-0.10;99.90;;;;;;5113236;28;20043;-68
2022/03/05 07:18:54;;;;;;;14.50;7.97;;;0.00;99.90;;;;;;5111949;28;20513;-68
2022/03/05 07:21:20;;;;;;;11.63;7.10;;;0.00;99.90;;;;;;5112847;28;20129;-68
2022/03/05 07:23:46;;;;;;;12.53;7.50;;;0.00;99.90;;;;;;5112527;28;20130;-68
2022/03/05 07:26:12;;;;;;;13.03;7.57;;;0.10;99.90;;;;;;5112012;28;20043;-68
2022/03/05 07:28:37;;;;;;;13.37;7.87;;;0.20;99.90;;;;;;5113719;28;20062;-68
2022/03/05 07:31:03;;;;;;;13.90;7.70;;;0.30;99.90;;;;;;5112623;28;20051;-68
2022/03/05 07:33:29;;;;;;;12.87;7.80;;;0.20;99.90;;;;;;5113112;28;20040;-68
2022/03/05 07:35:55;;;;;;;13.80;7.87;;;0.30;99.90;;;;;;5113529;28;20050;-68
2022/03/05 07:38:20;;;;;;;12.77;8.30;;;0.30;99.90;;;;;;5111695;28;20479;-68
2022/03/05 07:40:46;;;;;;;13.23;7.63;;;0.30;99.90;;;;;;5112447;28;20050;-68
2022/03/05 07:43:12;;;;;;;13.80;8.27;;;0.50;99.90;;;;;;5111902;28;20039;-68
2022/03/05 07:45:38;;;;;;;15.70;7.77;;;0.60;99.90;;;;;;5113346;28;20040;-68
2022/03/05 07:48:04;;;;;;;12.38;7.78;;;0.60;99.90;;;;;;5112299;28;20048;-68
2022/03/05 07:50:31;;;;;;;11.45;7.82;;;0.60;99.90;;;;;;5112973;28;20096;-68
2022/03/05 07:52:57;;;;;;;14.68;8.20;;;0.70;99.90;;;;;;5113411;28;20043;-67
2022/03/05 07:55:22;;;;;;;14.37;8.60;;;0.80;99.90;;;;;;5095049;28;20524;-68
2022/03/05 07:57:48;;;;;;;14.87;8.00;;;0.90;99.90;;;;;;5112229;28;20089;-67
2022/03/05 08:00:14;;;;;;;14.60;8.23;;;1.10;99.90;;;;;;5112941;28;20048;-68
2022/03/05 08:02:40;;;;;;;17.07;8.93;;;1.20;99.90;;;;;;5111916;28;20487;-68
2022/03/05 08:05:06;;;;;;;13.27;8.37;;;1.30;99.90;;;;;;5113176;28;20054;-68
2022/03/05 08:07:32;;;;;;;12.77;8.23;;;1.40;99.90;;;;;;5112891;28;20407;-69
2022/03/05 08:09:58;;;;;;;12.47;8.23;;;1.50;99.90;;;;;;5112183;28;20036;-69
2022/03/05 08:12:23;;;;;;;13.17;7.87;;;1.60;99.90;;;;;;5112835;28;20124;-69
2022/03/05 08:14:49;;;;;;;13.43;8.80;;;1.70;99.90;;;;;;5113038;28;20108;-68
2022/03/05 08:17:15;;;;;;;15.30;8.90;;;1.80;99.90;;;;;;5111572;28;20062;-69
2022/03/05 08:19:41;;;;;;;13.40;8.57;;;1.80;99.90;;;;;;5113248;28;20127;-67
2022/03/05 08:22:07;;;;;;;13.88;8.73;;;1.80;99.90;;;;;;5112167;28;20108;-68
2022/03/05 08:24:33;;;;;;;15.17;8.80;;;1.90;99.90;;;;;;5094580;28;20052;-67
2022/03/05 08:26:58;;;;;;;14.30;8.40;;;2.00;99.90;;;;;;5113000;28;20051;-68
2022/03/05 08:29:24;;;;;;;18.20;10.80;;;2.00;99.90;;;;;;5111740;28;20054;-68
2022/03/05 08:31:50;;;;;;;16.17;9.70;;;2.00;99.90;;;;;;5112914;28;20043;-68
2022/03/05 08:34:16;;;;;;;16.17;9.27;;;2.00;99.90;;;;;;5113811;28;20189;-69
2022/03/05 08:36:42;;;;;;;13.77;8.33;;;2.20;99.90;;;;;;5115642;28;20047;-69
2022/03/05 08:39:07;;;;;;;14.83;9.30;;;2.10;99.90;;;;;;5116640;28;20452;-68
2022/03/05 08:41:33;;;;;;;13.60;8.97;;;2.20;99.90;;;;;;5116259;27;20035;-68
2022/03/05 08:43:59;;;;;;;15.20;9.18;;;2.30;99.90;;;;;;5116721;28;20453;-68
2022/03/05 08:46:25;;;;;;;15.57;9.10;;;2.30;99.90;;;;;;5114860;28;20050;-69
2022/03/05 08:48:51;;;;;;;15.70;8.80;;;2.30;99.90;;;;;;5115219;28;20039;-68
2022/03/05 08:51:17;;;;;;;15.37;9.63;;;2.40;99.90;;;;;;5116064;28;20319;-70
2022/03/05 08:53:43;;;;;;;19.42;10.73;;;2.50;99.90;;;;;;5116309;28;20445;-68
2022/03/05 08:56:08;;;;;;;18.87;10.87;;;2.50;99.90;;;;;;5114927;28;20044;-68
2022/03/05 08:58:34;;;;;;;17.73;10.80;;;2.50;99.90;;;;;;5115878;28;20083;-68
2022/03/05 09:01:01;;;;;;;16.40;11.50;;;2.50;99.90;;;;;;5116216;28;20051;-68
2022/03/05 09:03:27;;;;;;;18.70;11.13;;;2.60;99.90;;;;;;5115797;28;20053;-69
2022/03/05 09:05:53;;;;;;;17.20;10.30;;;2.60;99.90;;;;;;5115031;28;20044;-68
2022/03/05 09:08:19;;;;;;;16.80;10.93;;;2.60;99.90;;;;;;5115809;28;20428;-69
2022/03/05 09:10:46;;;;;;;19.33;10.98;;;2.70;99.90;;;;;;5115936;28;20479;-68
2022/03/05 09:13:12;;;;;;;18.17;11.82;;;2.60;99.90;;;;;;5097985;28;20135;-69
2022/03/05 09:15:38;;;;;;;17.17;11.20;;;2.70;99.90;;;;;;5115534;28;20942;-69
2022/03/05 09:18:04;;;;;;;19.30;12.27;;;2.80;99.90;;;;;;5137694;27;20046;-68
2022/03/05 09:20:31;;;;;;;18.30;11.65;;;2.80;99.90;;;;;;5156748;27;20129;-68
2022/03/05 09:22:58;;;;;;;20.92;12.50;;;2.90;99.90;;;;;;5157050;27;20102;-67
2022/03/05 09:25:24;;;;;;;21.70;13.38;;;3.00;99.90;;;;;;5156718;27;20497;-68
2022/03/05 09:27:50;;;;;;;19.92;12.18;;;3.00;99.90;;;;;;5138627;27;20038;-68
2022/03/05 09:30:16;;;;;;;20.60;13.67;;;3.00;99.30;;;;;;5156883;27;20054;-68
2022/03/05 09:32:42;;;;;;;21.83;13.03;;;3.10;99.80;;;;;;5156185;27;20039;-68
2022/03/05 09:35:08;;;;;;;20.77;13.02;;;3.10;99.40;;;;;;5156696;27;20126;-70
2022/03/05 09:37:34;;;;;;;18.73;12.40;;;3.10;98.90;;;;;;5120999;27;20050;-71
2022/03/05 09:40:01;;;;;;;20.25;12.95;;;3.20;99.50;;;;;;5138511;27;20406;-70
2022/03/05 09:42:27;;;;;;;21.10;12.50;;;3.20;98.60;;;;;;5156349;27;20050;-71
2022/03/05 09:44:53;;;;;;;20.77;12.57;;;3.20;98.80;;;;;;5138403;27;20051;-70
2022/03/05 09:47:21;;;;;;;23.02;12.75;;;3.20;98.50;;;;;;5138158;27;20047;-70
2022/03/05 09:49:47;;;;;;;20.13;12.50;;;3.30;98.90;;;;;;5156554;27;20082;-70
2022/03/05 09:52:13;;;;;;;20.07;12.50;;;3.40;98.40;;;;;;5121142;27;20139;-67
2022/03/05 09:54:39;;;;;;;18.53;11.57;;;3.40;98.60;;;;;;5120732;27;20129;-71
2022/03/05 09:57:13;;;;;;;19.23;12.73;;;3.40;98.60;;;;;;5156470;27;20052;-69
2022/03/05 09:59:39;;;;;;;19.25;12.35;;;3.50;98.30;;;;;;5137491;27;20042;-71
2022/03/05 10:02:05;;;;;;;21.40;12.55;;;3.50;98.60;;;;;;5137992;27;20173;-70
2022/03/05 10:04:32;;;;;;;19.23;12.77;;;3.60;98.90;;;;;;5137634;27;20050;-75
2022/03/05 10:07:11;;;;;;;21.58;13.32;;;3.60;98.60;;;;;;5156047;27;20047;-69
2022/03/05 10:09:38;;;;;;;19.52;12.30;;;3.70;97.50;;;;;;5155792;27;20043;-70
2022/03/05 10:12:25;;;;;;;19.90;12.52;;;3.80;97.80;;;;;;5136072;27;20046;-75
2022/03/05 10:15:18;;;;;;;19.40;12.25;;;3.80;97.30;;;;;;5153723;27;20053;-72
2022/03/05 10:17:54;;;;;;;21.17;12.90;;;3.80;97.40;;;;;;5130929;27;20493;-69
2022/03/05 10:20:25;;;;;;;23.65;13.55;;;3.80;97.50;;;;;;5133614;27;20057;-67
2022/03/05 10:23:18;;;;;;;19.92;11.95;;;3.90;96.60;;;;;;5131387;27;20092;-73
2022/03/05 10:25:54;;;;;;;24.88;14.25;;;3.90;95.90;;;;;;5127799;27;20047;-71
2022/03/05 10:28:27;;;;;;;22.77;13.77;;;4.00;96.90;;;;;;5132138;27;20108;-77
2022/03/05 10:31:03;;;;;;;21.88;13.57;;;4.00;96.50;;;;;;5130660;27;20050;-70
2022/03/05 10:33:41;;;;;;;18.83;12.45;;;4.10;96.30;;;;;;5132637;27;20719;-70
2022/03/05 10:36:26;;;;;;;23.80;14.70;;;4.20;96.40;;;;;;5129075;27;20043;-68
2022/03/05 10:38:55;;;;;;;24.27;14.57;;;4.20;94.10;;;;;;5116381;27;20379;-69
2022/03/05 10:41:31;;;;;;;21.60;14.20;;;4.20;94.40;;;;;;5149850;27;20043;-69
2022/03/05 10:44:06;;;;;;;;;;;4.20;94.10;;;;;;5123768;27;20051;-69
2022/03/05 10:46:55;;;;;;;20.52;12.65;;;4.20;92.80;;;;;;5128345;27;19918;-68
2022/03/05 10:49:26;;;;;;;24.80;14.68;;;4.30;94.60;;;;;;5135901;27;20111;-67
2022/03/05 10:52:07;;;;;;;21.25;13.35;;;4.40;95.00;;;;;;5150899;27;20053;-68
2022/03/05 10:54:39;;;;;;;22.27;14.05;;;4.40;93.50;;;;;;5151174;27;20553;-67
2022/03/05 10:57:14;;;;;;;22.02;13.40;;;4.40;94.70;;;;;;5134529;27;20047;-70
2022/03/05 10:59:48;;;;;;;24.88;13.55;;;4.50;94.70;;;;;;5136284;27;20107;-71
2022/03/05 11:02:16;;;;;;;23.88;14.27;;;4.50;94.70;;;;;;5155184;27;20035;-71
2022/03/05 11:04:43;;;;;;;22.88;13.57;;;4.50;94.20;;;;;;5154754;27;20038;-73
2022/03/05 11:07:10;;;;;;;24.67;14.52;;;4.60;93.70;;;;;;5136772;27;20047;-73
2022/03/05 11:09:40;;;;;;;22.75;13.88;;;4.60;92.80;;;;;;5154720;27;20050;-72
2022/03/05 11:12:09;;;;;;;23.20;14.88;;;4.60;92.50;;;;;;5155194;27;20043;-71
2022/03/05 11:14:39;;;;;;;22.05;14.30;;;4.60;93.20;;;;;;5154244;27;20081;-70
2022/03/05 11:17:06;;;;;;;21.25;15.18;;;4.70;93.00;;;;;;5155138;27;20050;-72
2022/03/05 11:19:31;;;;;;;21.03;14.07;;;4.70;92.30;;;;;;5119095;27;20047;-71
2022/03/05 11:21:58;;;;;;;23.47;13.80;;;4.70;92.50;;;;;;5154930;27;20125;-71
2022/03/05 11:24:24;;;;;;;22.73;14.48;;;4.70;92.90;;;;;;5136326;27;20082;-72
2022/03/05 11:26:52;;;;;;;21.13;14.30;;;4.70;92.90;;;;;;5136049;27;20042;-74
2022/03/05 11:29:26;;;;;;;23.70;14.82;;;4.70;91.70;;;;;;5155083;27;20047;-76
2022/03/05 11:31:52;;;;;;;24.17;14.40;;;4.80;91.40;;;;;;5154597;27;20371;-74
2022/03/05 11:34:24;;;;;;;23.13;14.10;;;4.80;91.70;;;;;;5154714;27;20122;-74
2022/03/05 11:36:52;;;;;;;26.13;14.10;;;4.90;91.70;;;;;;5136123;27;20050;-75
2022/03/05 11:39:31;;;;;;;23.95;14.20;;;4.90;92.10;;;;;;5119225;27;20046;-74
2022/03/05 11:42:03;;;;;;;22.30;14.27;;;4.90;90.70;;;;;;5136204;27;20050;-74
2022/03/05 11:44:40;;;;;;;23.95;14.77;;;5.00;91.20;;;;;;5136433;27;20093;-77
2022/03/05 11:47:19;;;;;;;23.65;15.10;;;5.00;91.30;;;;;;5119584;27;20043;-77
2022/03/05 11:49:58;;;;;;;24.15;14.60;;;5.10;91.60;;;;;;5136184;27;20055;-75
2022/03/05 11:52:43;;;;;;;21.95;14.65;;;5.10;90.40;;;;;;5154618;27;20126;-77
2022/03/05 11:55:14;;;;;;;21.85;13.32;;;5.10;91.00;;;;;;5154559;27;20082;-76
2022/03/05 11:57:52;;;;;;;23.67;14.05;;;5.10;89.70;;;;;;5154213;27;20058;-76
2022/03/05 12:00:31;;;;;;;21.88;14.27;;;5.10;90.50;;;;;;5154614;27;20050;-73
2022/03/05 12:02:58;;;;;;;22.83;14.02;;;5.00;90.50;;;;;;5154225;27;20047;-74
2022/03/05 12:05:33;;;;;;;23.80;14.00;;;5.10;91.10;;;;;;5136262;27;20111;-74
2022/03/05 12:08:02;;;;;;;23.33;14.18;;;5.10;90.80;;;;;;5155151;27;20050;-72
2022/03/05 12:10:28;;;;;;;22.38;14.68;;;5.20;90.40;;;;;;5158574;27;20042;-70
2022/03/05 12:13:04;;;;;;;22.90;15.13;;;5.20;91.00;;;;;;5158235;27;20054;-71
2022/03/05 12:15:37;;;;;;;28.17;16.40;;;5.30;90.30;;;;;;5140038;27;20043;-71
2022/03/05 12:18:05;;;;;;;21.77;14.65;;;5.30;90.30;;;;;;5158111;27;20133;-71
2022/03/05 12:20:34;;;;;;;20.60;12.98;;;5.30;90.10;;;;;;5158385;27;20046;-71
2022/03/05 12:23:04;;;;;;;23.77;14.27;;;5.30;89.10;;;;;;5158003;27;20050;-72
2022/03/05 12:25:37;;;;;;;23.88;14.35;;;5.30;88.10;;;;;;5158239;27;20141;-71
2022/03/05 12:28:05;;;;;;;24.50;14.95;;;5.30;89.50;;;;;;5158217;27;20038;-71
2022/03/05 12:30:35;;;;;;;27.02;18.13;;;5.50;89.50;;;;;;5139931;27;20379;-71
2022/03/05 12:33:07;;;;;;;25.05;15.73;;;5.40;88.50;;;;;;5157867;27;20048;-76
2022/03/05 12:35:34;;;;;;;22.10;15.68;;;5.50;88.70;;;;;;5158372;27;20034;-75
2022/03/05 12:38:00;;;;;;;21.17;14.02;;;5.40;87.20;;;;;;5122392;27;20589;-73
2022/03/05 12:40:28;;;;;;;23.77;15.18;;;5.40;89.00;;;;;;5158173;27;20083;-75
2022/03/05 12:42:56;;;;;;;24.27;16.00;;;5.50;87.20;;;;;;5157580;27;20047;-73
2022/03/05 12:45:32;;;;;;;21.67;14.65;;;5.50;88.80;;;;;;5139354;27;20041;-72